sensor_id;sensor_type;location;lat;lon;timestamp;P1;durP1;ratioP1;P2;durP2;ratioP2
22737;SDS011;11536;50.860;4.286;2023-03-09T00:01:23;17.95;;;9.45;;
22737;SDS011;11536;50.860;4.286;2023-03-09T00:03:51;15.93;;;9.23;;
22737;SDS011;11536;50.860;4.286;2023-03-09T00:06:17;18.10;;;10.38;;
22737;SDS011;11536;50.860;4.286;2023-03-09T00:08:43;18.50;;;10.45;;
22737;SDS011;11536;50.860;4.286;2023-03-09T00:11:09;21.83;;;10.65;;
22737;SDS011;11536;50.860;4.286;2023-03-09T00:13:35;17.85;;;9.93;;
22737;SDS011;11536;50.860;4.286;2023-03-09T00:16:11;19.52;;;10.95;;
22737;SDS011;11536;50.860;4.286;2023-03-09T00:18:37;19.63;;;10.43;;
22737;SDS011;11536;50.860;4.286;2023-03-09T00:21:03;18.30;;;10.38;;
22737;SDS011;11536;50.860;4.286;2023-03-09T00:23:29;21.80;;;11.32;;
22737;SDS011;11536;50.860;4.286;2023-03-09T00:25:55;17.73;;;10.43;;
22737;SDS011;11536;50.860;4.286;2023-03-09T00:28:27;19.75;;;10.85;;
22737;SDS011;11536;50.860;4.286;2023-03-09T00:30:52;19.95;;;11.18;;
22737;SDS011;11536;50.860;4.286;2023-03-09T00:33:18;19.13;;;10.52;;
22737;SDS011;11536;50.860;4.286;2023-03-09T00:35:43;18.30;;;10.20;;
22737;SDS011;11536;50.860;4.286;2023-03-09T00:38:09;19.73;;;11.10;;
22737;SDS011;11536;50.860;4.286;2023-03-09T00:40:35;20.20;;;10.77;;
22737;SDS011;11536;50.860;4.286;2023-03-09T00:43:01;21.73;;;11.93;;
22737;SDS011;11536;50.860;4.286;2023-03-09T00:45:27;22.85;;;12.20;;
22737;SDS011;11536;50.860;4.286;2023-03-09T00:47:52;21.88;;;12.23;;
22737;SDS011;11536;50.860;4.286;2023-03-09T00:50:18;27.52;;;14.35;;
22737;SDS011;11536;50.860;4.286;2023-03-09T00:52:44;29.02;;;14.73;;
22737;SDS011;11536;50.860;4.286;2023-03-09T00:55:09;30.45;;;14.98;;
22737;SDS011;11536;50.860;4.286;2023-03-09T00:57:35;29.63;;;14.65;;
22737;SDS011;11536;50.860;4.286;2023-03-09T01:00:01;28.23;;;14.40;;
22737;SDS011;11536;50.860;4.286;2023-03-09T01:02:29;32.88;;;15.88;;
22737;SDS011;11536;50.860;4.286;2023-03-09T01:04:54;31.60;;;15.48;;
22737;SDS011;11536;50.860;4.286;2023-03-09T01:07:20;34.25;;;15.75;;
22737;SDS011;11536;50.860;4.286;2023-03-09T01:09:47;33.53;;;16.42;;
22737;SDS011;11536;50.860;4.286;2023-03-09T01:12:12;34.30;;;16.13;;
22737;SDS011;11536;50.860;4.286;2023-03-09T01:14:38;34.47;;;16.98;;
22737;SDS011;11536;50.860;4.286;2023-03-09T01:17:04;35.75;;;17.55;;
22737;SDS011;11536;50.860;4.286;2023-03-09T01:19:30;39.72;;;18.38;;
22737;SDS011;11536;50.860;4.286;2023-03-09T01:21:56;37.35;;;18.33;;
22737;SDS011;11536;50.860;4.286;2023-03-09T01:24:22;35.70;;;17.23;;
22737;SDS011;11536;50.860;4.286;2023-03-09T01:26:48;40.67;;;18.67;;
22737;SDS011;11536;50.860;4.286;2023-03-09T01:29:13;39.03;;;17.65;;
22737;SDS011;11536;50.860;4.286;2023-03-09T01:31:39;39.67;;;19.05;;
22737;SDS011;11536;50.860;4.286;2023-03-09T01:34:05;40.33;;;18.95;;
22737;SDS011;11536;50.860;4.286;2023-03-09T01:36:30;42.30;;;18.75;;
22737;SDS011;11536;50.860;4.286;2023-03-09T01:38:56;39.97;;;18.45;;
22737;SDS011;11536;50.860;4.286;2023-03-09T01:41:22;37.28;;;18.95;;
22737;SDS011;11536;50.860;4.286;2023-03-09T01:43:48;39.55;;;18.80;;
22737;SDS011;11536;50.860;4.286;2023-03-09T01:49:04;42.65;;;19.02;;
22737;SDS011;11536;50.860;4.286;2023-03-09T01:51:36;43.00;;;20.33;;
22737;SDS011;11536;50.860;4.286;2023-03-09T01:54:02;38.80;;;18.45;;
22737;SDS011;11536;50.860;4.286;2023-03-09T01:56:31;42.72;;;18.23;;
22737;SDS011;11536;50.860;4.286;2023-03-09T01:58:59;43.92;;;20.10;;
22737;SDS011;11536;50.860;4.286;2023-03-09T02:01:28;45.95;;;20.50;;
22737;SDS011;11536;50.860;4.286;2023-03-09T02:03:57;44.75;;;20.13;;
22737;SDS011;11536;50.860;4.286;2023-03-09T02:06:29;38.22;;;18.45;;
22737;SDS011;11536;50.860;4.286;2023-03-09T02:09:00;35.42;;;17.33;;
22737;SDS011;11536;50.860;4.286;2023-03-09T02:11:45;40.78;;;18.40;;
22737;SDS011;11536;50.860;4.286;2023-03-09T02:14:11;37.15;;;17.58;;
22737;SDS011;11536;50.860;4.286;2023-03-09T02:16:38;35.58;;;17.55;;
22737;SDS011;11536;50.860;4.286;2023-03-09T02:19:05;38.85;;;17.92;;
22737;SDS011;11536;50.860;4.286;2023-03-09T02:21:45;35.78;;;16.35;;
22737;SDS011;11536;50.860;4.286;2023-03-09T02:29:26;29.65;;;14.35;;
22737;SDS011;11536;50.860;4.286;2023-03-09T02:31:53;36.72;;;16.35;;
22737;SDS011;11536;50.860;4.286;2023-03-09T02:34:18;33.55;;;15.95;;
22737;SDS011;11536;50.860;4.286;2023-03-09T02:36:44;36.65;;;17.00;;
22737;SDS011;11536;50.860;4.286;2023-03-09T02:39:14;35.30;;;16.52;;
22737;SDS011;11536;50.860;4.286;2023-03-09T02:41:58;38.10;;;16.73;;
22737;SDS011;11536;50.860;4.286;2023-03-09T02:44:24;38.63;;;17.67;;
22737;SDS011;11536;50.860;4.286;2023-03-09T02:46:51;36.38;;;17.35;;
22737;SDS011;11536;50.860;4.286;2023-03-09T02:49:16;37.70;;;17.00;;
22737;SDS011;11536;50.860;4.286;2023-03-09T02:51:42;37.97;;;17.67;;
22737;SDS011;11536;50.860;4.286;2023-03-09T02:54:08;39.03;;;18.50;;
22737;SDS011;11536;50.860;4.286;2023-03-09T02:56:34;38.47;;;17.30;;
22737;SDS011;11536;50.860;4.286;2023-03-09T02:58:59;37.17;;;17.88;;
22737;SDS011;11536;50.860;4.286;2023-03-09T03:01:27;38.10;;;17.10;;
22737;SDS011;11536;50.860;4.286;2023-03-09T03:03:53;38.53;;;17.40;;
22737;SDS011;11536;50.860;4.286;2023-03-09T03:06:19;36.63;;;17.67;;
22737;SDS011;11536;50.860;4.286;2023-03-09T03:08:44;40.97;;;17.88;;
22737;SDS011;11536;50.860;4.286;2023-03-09T03:11:10;37.65;;;17.00;;
22737;SDS011;11536;50.860;4.286;2023-03-09T03:13:36;40.13;;;18.65;;
22737;SDS011;11536;50.860;4.286;2023-03-09T03:16:02;39.47;;;17.75;;
22737;SDS011;11536;50.860;4.286;2023-03-09T03:18:29;32.28;;;15.75;;
22737;SDS011;11536;50.860;4.286;2023-03-09T03:20:54;37.45;;;16.58;;
22737;SDS011;11536;50.860;4.286;2023-03-09T03:23:20;35.15;;;16.40;;
22737;SDS011;11536;50.860;4.286;2023-03-09T03:25:46;31.55;;;15.40;;
22737;SDS011;11536;50.860;4.286;2023-03-09T03:28:12;31.30;;;15.00;;
22737;SDS011;11536;50.860;4.286;2023-03-09T03:30:38;33.05;;;14.98;;
22737;SDS011;11536;50.860;4.286;2023-03-09T03:33:04;33.47;;;14.80;;
22737;SDS011;11536;50.860;4.286;2023-03-09T03:35:29;34.72;;;15.30;;
22737;SDS011;11536;50.860;4.286;2023-03-09T03:37:55;31.88;;;15.13;;
22737;SDS011;11536;50.860;4.286;2023-03-09T03:40:21;32.05;;;14.32;;
22737;SDS011;11536;50.860;4.286;2023-03-09T03:42:48;31.55;;;14.32;;
22737;SDS011;11536;50.860;4.286;2023-03-09T03:45:13;33.72;;;15.80;;
22737;SDS011;11536;50.860;4.286;2023-03-09T03:47:39;30.00;;;14.52;;
22737;SDS011;11536;50.860;4.286;2023-03-09T03:50:05;32.15;;;15.57;;
22737;SDS011;11536;50.860;4.286;2023-03-09T03:52:31;31.63;;;15.27;;
22737;SDS011;11536;50.860;4.286;2023-03-09T03:54:57;29.42;;;14.02;;
22737;SDS011;11536;50.860;4.286;2023-03-09T03:57:22;29.58;;;14.18;;
22737;SDS011;11536;50.860;4.286;2023-03-09T03:59:48;30.17;;;14.05;;
22737;SDS011;11536;50.860;4.286;2023-03-09T04:02:14;33.00;;;14.77;;
22737;SDS011;11536;50.860;4.286;2023-03-09T04:04:40;33.15;;;14.75;;
22737;SDS011;11536;50.860;4.286;2023-03-09T04:07:06;24.88;;;12.73;;
22737;SDS011;11536;50.860;4.286;2023-03-09T04:09:32;28.85;;;13.95;;
22737;SDS011;11536;50.860;4.286;2023-03-09T04:11:57;30.45;;;13.95;;
22737;SDS011;11536;50.860;4.286;2023-03-09T04:14:23;28.92;;;13.50;;
22737;SDS011;11536;50.860;4.286;2023-03-09T04:16:49;30.13;;;14.18;;
22737;SDS011;11536;50.860;4.286;2023-03-09T04:19:14;27.90;;;13.93;;
22737;SDS011;11536;50.860;4.286;2023-03-09T04:21:40;31.25;;;14.35;;
22737;SDS011;11536;50.860;4.286;2023-03-09T04:24:06;26.30;;;12.57;;
22737;SDS011;11536;50.860;4.286;2023-03-09T04:26:31;28.73;;;14.40;;
22737;SDS011;11536;50.860;4.286;2023-03-09T04:28:57;30.67;;;14.45;;
22737;SDS011;11536;50.860;4.286;2023-03-09T04:31:23;32.42;;;15.80;;
22737;SDS011;11536;50.860;4.286;2023-03-09T04:33:49;31.25;;;15.70;;
22737;SDS011;11536;50.860;4.286;2023-03-09T04:36:14;30.27;;;14.82;;
22737;SDS011;11536;50.860;4.286;2023-03-09T04:38:40;32.65;;;15.63;;
22737;SDS011;11536;50.860;4.286;2023-03-09T04:41:05;29.98;;;15.15;;
22737;SDS011;11536;50.860;4.286;2023-03-09T04:43:32;30.02;;;14.27;;
22737;SDS011;11536;50.860;4.286;2023-03-09T04:45:58;27.65;;;14.30;;
22737;SDS011;11536;50.860;4.286;2023-03-09T04:48:24;27.83;;;14.15;;
22737;SDS011;11536;50.860;4.286;2023-03-09T04:50:49;31.85;;;15.90;;
22737;SDS011;11536;50.860;4.286;2023-03-09T04:53:15;31.42;;;15.23;;
22737;SDS011;11536;50.860;4.286;2023-03-09T04:55:40;31.02;;;15.95;;
22737;SDS011;11536;50.860;4.286;2023-03-09T04:58:06;32.25;;;16.33;;
22737;SDS011;11536;50.860;4.286;2023-03-09T05:00:32;33.85;;;16.15;;
22737;SDS011;11536;50.860;4.286;2023-03-09T05:02:57;32.92;;;16.70;;
22737;SDS011;11536;50.860;4.286;2023-03-09T05:05:23;33.70;;;16.75;;
22737;SDS011;11536;50.860;4.286;2023-03-09T05:07:49;31.55;;;15.82;;
22737;SDS011;11536;50.860;4.286;2023-03-09T05:10:15;36.33;;;17.50;;
22737;SDS011;11536;50.860;4.286;2023-03-09T05:12:40;37.45;;;18.85;;
22737;SDS011;11536;50.860;4.286;2023-03-09T05:15:07;35.25;;;17.77;;
22737;SDS011;11536;50.860;4.286;2023-03-09T05:17:34;32.88;;;16.17;;
22737;SDS011;11536;50.860;4.286;2023-03-09T05:20:00;31.50;;;16.23;;
22737;SDS011;11536;50.860;4.286;2023-03-09T05:22:26;31.20;;;14.60;;
22737;SDS011;11536;50.860;4.286;2023-03-09T05:24:51;34.15;;;16.52;;
22737;SDS011;11536;50.860;4.286;2023-03-09T05:27:17;30.67;;;16.05;;
22737;SDS011;11536;50.860;4.286;2023-03-09T05:29:42;29.42;;;14.73;;
22737;SDS011;11536;50.860;4.286;2023-03-09T05:32:08;28.65;;;14.63;;
22737;SDS011;11536;50.860;4.286;2023-03-09T05:34:34;30.95;;;15.55;;
22737;SDS011;11536;50.860;4.286;2023-03-09T05:37:01;32.42;;;14.82;;
22737;SDS011;11536;50.860;4.286;2023-03-09T05:39:26;27.92;;;13.15;;
22737;SDS011;11536;50.860;4.286;2023-03-09T05:41:53;26.70;;;13.32;;
22737;SDS011;11536;50.860;4.286;2023-03-09T05:44:18;26.85;;;13.77;;
22737;SDS011;11536;50.860;4.286;2023-03-09T05:46:44;24.20;;;12.05;;
22737;SDS011;11536;50.860;4.286;2023-03-09T05:49:10;24.83;;;12.20;;
22737;SDS011;11536;50.860;4.286;2023-03-09T05:51:35;23.40;;;12.20;;
22737;SDS011;11536;50.860;4.286;2023-03-09T05:54:01;27.25;;;12.05;;
22737;SDS011;11536;50.860;4.286;2023-03-09T05:56:27;27.92;;;13.88;;
22737;SDS011;11536;50.860;4.286;2023-03-09T05:58:52;30.90;;;14.05;;
22737;SDS011;11536;50.860;4.286;2023-03-09T06:01:20;27.30;;;13.88;;
22737;SDS011;11536;50.860;4.286;2023-03-09T06:03:47;30.80;;;15.15;;
22737;SDS011;11536;50.860;4.286;2023-03-09T06:06:14;30.77;;;14.18;;
22737;SDS011;11536;50.860;4.286;2023-03-09T06:08:40;29.83;;;14.20;;
22737;SDS011;11536;50.860;4.286;2023-03-09T06:11:06;29.67;;;13.38;;
22737;SDS011;11536;50.860;4.286;2023-03-09T06:13:32;32.30;;;14.20;;
22737;SDS011;11536;50.860;4.286;2023-03-09T06:16:01;32.50;;;14.55;;
22737;SDS011;11536;50.860;4.286;2023-03-09T06:18:30;29.38;;;14.35;;
22737;SDS011;11536;50.860;4.286;2023-03-09T06:20:59;30.17;;;14.18;;
22737;SDS011;11536;50.860;4.286;2023-03-09T06:23:26;27.98;;;13.55;;
22737;SDS011;11536;50.860;4.286;2023-03-09T06:25:52;29.55;;;14.30;;
22737;SDS011;11536;50.860;4.286;2023-03-09T06:28:21;29.10;;;13.82;;
22737;SDS011;11536;50.860;4.286;2023-03-09T06:30:47;29.58;;;13.18;;
22737;SDS011;11536;50.860;4.286;2023-03-09T06:33:12;26.00;;;12.18;;
22737;SDS011;11536;50.860;4.286;2023-03-09T06:35:39;30.50;;;12.95;;
22737;SDS011;11536;50.860;4.286;2023-03-09T06:38:05;28.90;;;13.23;;
22737;SDS011;11536;50.860;4.286;2023-03-09T06:40:31;26.95;;;12.60;;
22737;SDS011;11536;50.860;4.286;2023-03-09T06:42:57;28.77;;;14.10;;
22737;SDS011;11536;50.860;4.286;2023-03-09T06:45:22;29.45;;;13.77;;
22737;SDS011;11536;50.860;4.286;2023-03-09T06:47:48;29.13;;;12.85;;
22737;SDS011;11536;50.860;4.286;2023-03-09T06:50:18;29.95;;;13.57;;
22737;SDS011;11536;50.860;4.286;2023-03-09T06:52:43;30.33;;;12.57;;
22737;SDS011;11536;50.860;4.286;2023-03-09T06:55:09;29.63;;;13.57;;
22737;SDS011;11536;50.860;4.286;2023-03-09T06:57:36;27.33;;;12.65;;
22737;SDS011;11536;50.860;4.286;2023-03-09T07:00:02;30.58;;;13.63;;
22737;SDS011;11536;50.860;4.286;2023-03-09T07:02:29;32.35;;;13.57;;
22737;SDS011;11536;50.860;4.286;2023-03-09T07:04:56;31.15;;;14.05;;
22737;SDS011;11536;50.860;4.286;2023-03-09T07:07:22;25.80;;;12.90;;
22737;SDS011;11536;50.860;4.286;2023-03-09T07:09:47;29.02;;;12.85;;
22737;SDS011;11536;50.860;4.286;2023-03-09T07:12:13;28.33;;;12.35;;
22737;SDS011;11536;50.860;4.286;2023-03-09T07:14:38;27.70;;;13.27;;
22737;SDS011;11536;50.860;4.286;2023-03-09T07:17:04;33.50;;;14.23;;
22737;SDS011;11536;50.860;4.286;2023-03-09T07:19:30;27.98;;;13.15;;
22737;SDS011;11536;50.860;4.286;2023-03-09T07:21:55;33.22;;;14.55;;
22737;SDS011;11536;50.860;4.286;2023-03-09T07:24:21;33.28;;;14.05;;
22737;SDS011;11536;50.860;4.286;2023-03-09T07:26:47;34.60;;;14.32;;
22737;SDS011;11536;50.860;4.286;2023-03-09T07:29:13;33.63;;;14.48;;
22737;SDS011;11536;50.860;4.286;2023-03-09T07:31:39;31.00;;;14.15;;
22737;SDS011;11536;50.860;4.286;2023-03-09T07:34:05;31.92;;;14.80;;
22737;SDS011;11536;50.860;4.286;2023-03-09T07:36:31;34.13;;;15.25;;
22737;SDS011;11536;50.860;4.286;2023-03-09T07:38:56;32.78;;;14.23;;
22737;SDS011;11536;50.860;4.286;2023-03-09T07:41:22;34.92;;;15.35;;
22737;SDS011;11536;50.860;4.286;2023-03-09T07:43:47;31.00;;;14.38;;
22737;SDS011;11536;50.860;4.286;2023-03-09T07:46:14;32.53;;;14.35;;
22737;SDS011;11536;50.860;4.286;2023-03-09T07:48:40;31.90;;;14.25;;
22737;SDS011;11536;50.860;4.286;2023-03-09T07:51:08;30.63;;;13.73;;
22737;SDS011;11536;50.860;4.286;2023-03-09T07:53:35;33.08;;;14.80;;
22737;SDS011;11536;50.860;4.286;2023-03-09T07:56:01;37.38;;;16.25;;
22737;SDS011;11536;50.860;4.286;2023-03-09T07:58:32;34.83;;;15.45;;
22737;SDS011;11536;50.860;4.286;2023-03-09T08:00:59;34.20;;;15.27;;
22737;SDS011;11536;50.860;4.286;2023-03-09T08:03:25;34.00;;;15.60;;
22737;SDS011;11536;50.860;4.286;2023-03-09T08:05:51;37.80;;;16.40;;
22737;SDS011;11536;50.860;4.286;2023-03-09T08:08:21;33.45;;;15.07;;
22737;SDS011;11536;50.860;4.286;2023-03-09T08:10:50;33.42;;;14.15;;
22737;SDS011;11536;50.860;4.286;2023-03-09T08:13:17;30.85;;;13.68;;
22737;SDS011;11536;50.860;4.286;2023-03-09T08:15:43;34.72;;;14.52;;
22737;SDS011;11536;50.860;4.286;2023-03-09T08:18:09;30.42;;;13.27;;
22737;SDS011;11536;50.860;4.286;2023-03-09T08:20:35;31.85;;;14.50;;
22737;SDS011;11536;50.860;4.286;2023-03-09T08:23:01;33.40;;;14.25;;
22737;SDS011;11536;50.860;4.286;2023-03-09T08:25:28;30.13;;;13.05;;
22737;SDS011;11536;50.860;4.286;2023-03-09T08:27:54;33.88;;;13.68;;
22737;SDS011;11536;50.860;4.286;2023-03-09T08:30:20;34.25;;;13.70;;
22737;SDS011;11536;50.860;4.286;2023-03-09T08:32:50;29.35;;;12.45;;
22737;SDS011;11536;50.860;4.286;2023-03-09T08:35:17;31.70;;;12.95;;
22737;SDS011;11536;50.860;4.286;2023-03-09T08:37:44;32.60;;;13.85;;
22737;SDS011;11536;50.860;4.286;2023-03-09T08:40:10;34.78;;;14.13;;
22737;SDS011;11536;50.860;4.286;2023-03-09T08:42:37;37.63;;;14.73;;
22737;SDS011;11536;50.860;4.286;2023-03-09T08:45:03;32.03;;;14.70;;
22737;SDS011;11536;50.860;4.286;2023-03-09T08:47:29;33.38;;;14.80;;
22737;SDS011;11536;50.860;4.286;2023-03-09T08:49:55;35.38;;;15.05;;
22737;SDS011;11536;50.860;4.286;2023-03-09T08:52:21;33.80;;;15.88;;
22737;SDS011;11536;50.860;4.286;2023-03-09T08:54:46;32.50;;;14.52;;
22737;SDS011;11536;50.860;4.286;2023-03-09T08:57:12;36.22;;;15.05;;
22737;SDS011;11536;50.860;4.286;2023-03-09T08:59:38;28.23;;;12.77;;
22737;SDS011;11536;50.860;4.286;2023-03-09T09:02:04;26.48;;;12.52;;
22737;SDS011;11536;50.860;4.286;2023-03-09T09:04:30;29.58;;;13.15;;
22737;SDS011;11536;50.860;4.286;2023-03-09T09:06:55;30.20;;;12.90;;
22737;SDS011;11536;50.860;4.286;2023-03-09T09:09:21;29.67;;;12.95;;
22737;SDS011;11536;50.860;4.286;2023-03-09T09:11:46;32.38;;;13.15;;
22737;SDS011;11536;50.860;4.286;2023-03-09T09:14:12;29.02;;;13.30;;
22737;SDS011;11536;50.860;4.286;2023-03-09T09:16:39;29.77;;;12.48;;
22737;SDS011;11536;50.860;4.286;2023-03-09T09:19:05;30.55;;;13.63;;
22737;SDS011;11536;50.860;4.286;2023-03-09T09:21:30;33.72;;;14.25;;
22737;SDS011;11536;50.860;4.286;2023-03-09T09:23:56;32.42;;;14.55;;
22737;SDS011;11536;50.860;4.286;2023-03-09T09:26:22;32.88;;;14.30;;
22737;SDS011;11536;50.860;4.286;2023-03-09T09:28:48;33.83;;;15.75;;
22737;SDS011;11536;50.860;4.286;2023-03-09T09:31:18;32.67;;;15.10;;
22737;SDS011;11536;50.860;4.286;2023-03-09T09:33:46;32.17;;;13.98;;
22737;SDS011;11536;50.860;4.286;2023-03-09T09:36:14;31.95;;;15.50;;
22737;SDS011;11536;50.860;4.286;2023-03-09T09:38:42;30.73;;;13.77;;
22737;SDS011;11536;50.860;4.286;2023-03-09T09:41:13;31.05;;;13.93;;
22737;SDS011;11536;50.860;4.286;2023-03-09T09:44:02;31.70;;;13.93;;
22737;SDS011;11536;50.860;4.286;2023-03-09T09:46:32;32.08;;;14.45;;
22737;SDS011;11536;50.860;4.286;2023-03-09T09:49:00;30.25;;;14.13;;
22737;SDS011;11536;50.860;4.286;2023-03-09T09:56:59;29.35;;;13.90;;
22737;SDS011;11536;50.860;4.286;2023-03-09T09:59:34;34.00;;;15.35;;
22737;SDS011;11536;50.860;4.286;2023-03-09T10:02:50;34.63;;;15.18;;
22737;SDS011;11536;50.860;4.286;2023-03-09T10:13:58;27.45;;;13.63;;
22737;SDS011;11536;50.860;4.286;2023-03-09T10:16:37;34.38;;;15.75;;
22737;SDS011;11536;50.860;4.286;2023-03-09T10:19:16;34.35;;;16.38;;
22737;SDS011;11536;50.860;4.286;2023-03-09T10:24:22;34.53;;;15.15;;
22737;SDS011;11536;50.860;4.286;2023-03-09T10:27:03;29.67;;;14.77;;
22737;SDS011;11536;50.860;4.286;2023-03-09T10:30:19;35.15;;;16.23;;
22737;SDS011;11536;50.860;4.286;2023-03-09T10:32:42;34.92;;;16.17;;
22737;SDS011;11536;50.860;4.286;2023-03-09T10:37:45;33.25;;;16.30;;
22737;SDS011;11536;50.860;4.286;2023-03-09T10:40:15;37.05;;;16.20;;
22737;SDS011;11536;50.860;4.286;2023-03-09T10:42:44;38.30;;;18.10;;
22737;SDS011;11536;50.860;4.286;2023-03-09T10:45:19;37.72;;;17.15;;
22737;SDS011;11536;50.860;4.286;2023-03-09T10:50:32;34.58;;;17.08;;
22737;SDS011;11536;50.860;4.286;2023-03-09T10:53:44;40.55;;;18.75;;
22737;SDS011;11536;50.860;4.286;2023-03-09T10:56:05;36.13;;;16.95;;
22737;SDS011;11536;50.860;4.286;2023-03-09T10:58:38;37.13;;;17.30;;
22737;SDS011;11536;50.860;4.286;2023-03-09T11:01:05;36.97;;;16.95;;
22737;SDS011;11536;50.860;4.286;2023-03-09T11:03:47;35.95;;;16.65;;
22737;SDS011;11536;50.860;4.286;2023-03-09T11:08:38;36.35;;;17.20;;
22737;SDS011;11536;50.860;4.286;2023-03-09T11:11:07;36.17;;;17.25;;
22737;SDS011;11536;50.860;4.286;2023-03-09T11:13:44;41.05;;;18.42;;
22737;SDS011;11536;50.860;4.286;2023-03-09T11:18:42;38.92;;;17.33;;
22737;SDS011;11536;50.860;4.286;2023-03-09T11:21:08;32.15;;;15.85;;
22737;SDS011;11536;50.860;4.286;2023-03-09T11:23:38;30.10;;;16.10;;
22737;SDS011;11536;50.860;4.286;2023-03-09T11:31:13;37.65;;;17.90;;
22737;SDS011;11536;50.860;4.286;2023-03-09T11:33:42;34.60;;;17.35;;
22737;SDS011;11536;50.860;4.286;2023-03-09T11:36:13;35.00;;;16.38;;
22737;SDS011;11536;50.860;4.286;2023-03-09T11:38:49;35.28;;;16.67;;
22737;SDS011;11536;50.860;4.286;2023-03-09T11:41:28;31.50;;;16.17;;
22737;SDS011;11536;50.860;4.286;2023-03-09T11:44:06;31.90;;;17.08;;
22737;SDS011;11536;50.860;4.286;2023-03-09T11:46:44;38.42;;;16.48;;
22737;SDS011;11536;50.860;4.286;2023-03-09T11:49:11;30.13;;;15.07;;
22737;SDS011;11536;50.860;4.286;2023-03-09T11:51:44;30.85;;;13.95;;
22737;SDS011;11536;50.860;4.286;2023-03-09T11:54:23;28.45;;;13.82;;
22737;SDS011;11536;50.860;4.286;2023-03-09T11:56:58;27.63;;;12.80;;
22737;SDS011;11536;50.860;4.286;2023-03-09T11:59:49;26.17;;;11.35;;
22737;SDS011;11536;50.860;4.286;2023-03-09T12:04:54;26.70;;;10.85;;
22737;SDS011;11536;50.860;4.286;2023-03-09T12:07:37;24.60;;;9.82;;
22737;SDS011;11536;50.860;4.286;2023-03-09T12:10:14;22.67;;;9.15;;
22737;SDS011;11536;50.860;4.286;2023-03-09T12:12:45;21.23;;;9.07;;
22737;SDS011;11536;50.860;4.286;2023-03-09T12:15:21;22.65;;;7.68;;
22737;SDS011;11536;50.860;4.286;2023-03-09T12:17:58;26.50;;;6.78;;
22737;SDS011;11536;50.860;4.286;2023-03-09T12:20:27;25.73;;;6.65;;
22737;SDS011;11536;50.860;4.286;2023-03-09T12:25:25;17.48;;;3.92;;
22737;SDS011;11536;50.860;4.286;2023-03-09T12:27:55;17.45;;;3.72;;
22737;SDS011;11536;50.860;4.286;2023-03-09T12:30:26;18.65;;;4.22;;
22737;SDS011;11536;50.860;4.286;2023-03-09T12:32:59;18.25;;;3.67;;
22737;SDS011;11536;50.860;4.286;2023-03-09T12:40:31;22.60;;;4.32;;
22737;SDS011;11536;50.860;4.286;2023-03-09T12:45:40;20.55;;;3.50;;
22737;SDS011;11536;50.860;4.286;2023-03-09T12:50:47;20.27;;;4.15;;
22737;SDS011;11536;50.860;4.286;2023-03-09T12:53:22;23.30;;;3.40;;
22737;SDS011;11536;50.860;4.286;2023-03-09T12:58:38;26.77;;;4.10;;
22737;SDS011;11536;50.860;4.286;2023-03-09T13:01:10;20.83;;;3.80;;
22737;SDS011;11536;50.860;4.286;2023-03-09T13:03:39;21.83;;;3.25;;
22737;SDS011;11536;50.860;4.286;2023-03-09T13:11:30;27.45;;;4.15;;
22737;SDS011;11536;50.860;4.286;2023-03-09T13:24:22;23.23;;;3.55;;
22737;SDS011;11536;50.860;4.286;2023-03-09T13:26:53;18.02;;;3.05;;
22737;SDS011;11536;50.860;4.286;2023-03-09T13:29:24;20.63;;;3.58;;
22737;SDS011;11536;50.860;4.286;2023-03-09T13:31:51;20.23;;;3.55;;
22737;SDS011;11536;50.860;4.286;2023-03-09T13:34:20;21.45;;;3.55;;
22737;SDS011;11536;50.860;4.286;2023-03-09T13:36:53;21.42;;;2.95;;
22737;SDS011;11536;50.860;4.286;2023-03-09T13:39:28;18.95;;;3.67;;
22737;SDS011;11536;50.860;4.286;2023-03-09T13:41:54;23.30;;;3.63;;
22737;SDS011;11536;50.860;4.286;2023-03-09T13:44:24;14.20;;;2.72;;
22737;SDS011;11536;50.860;4.286;2023-03-09T13:46:51;19.65;;;3.17;;
22737;SDS011;11536;50.860;4.286;2023-03-09T13:49:21;22.42;;;3.03;;
22737;SDS011;11536;50.860;4.286;2023-03-09T13:51:50;18.77;;;2.60;;
22737;SDS011;11536;50.860;4.286;2023-03-09T13:57:14;24.27;;;3.17;;
22737;SDS011;11536;50.860;4.286;2023-03-09T13:59:42;15.13;;;2.95;;
22737;SDS011;11536;50.860;4.286;2023-03-09T14:02:09;16.55;;;2.72;;
22737;SDS011;11536;50.860;4.286;2023-03-09T14:04:46;18.73;;;2.65;;
22737;SDS011;11536;50.860;4.286;2023-03-09T14:07:19;19.35;;;2.75;;
22737;SDS011;11536;50.860;4.286;2023-03-09T14:10:00;19.25;;;2.42;;
22737;SDS011;11536;50.860;4.286;2023-03-09T14:12:37;18.17;;;2.80;;
22737;SDS011;11536;50.860;4.286;2023-03-09T14:15:05;15.27;;;2.53;;
22737;SDS011;11536;50.860;4.286;2023-03-09T14:17:40;13.38;;;2.60;;
22737;SDS011;11536;50.860;4.286;2023-03-09T14:20:12;21.23;;;2.72;;
22737;SDS011;11536;50.860;4.286;2023-03-09T14:22:49;18.10;;;2.42;;
22737;SDS011;11536;50.860;4.286;2023-03-09T14:25:29;19.55;;;2.90;;
22737;SDS011;11536;50.860;4.286;2023-03-09T14:27:56;15.40;;;2.55;;
22737;SDS011;11536;50.860;4.286;2023-03-09T14:33:06;16.55;;;2.65;;
22737;SDS011;11536;50.860;4.286;2023-03-09T14:41:19;20.50;;;3.20;;
22737;SDS011;11536;50.860;4.286;2023-03-09T14:43:46;21.00;;;3.10;;
22737;SDS011;11536;50.860;4.286;2023-03-09T14:46:16;18.80;;;2.63;;
22737;SDS011;11536;50.860;4.286;2023-03-09T14:48:44;14.75;;;3.05;;
22737;SDS011;11536;50.860;4.286;2023-03-09T14:51:16;16.45;;;2.97;;
22737;SDS011;11536;50.860;4.286;2023-03-09T14:56:16;17.52;;;2.70;;
22737;SDS011;11536;50.860;4.286;2023-03-09T14:58:42;21.13;;;2.72;;
22737;SDS011;11536;50.860;4.286;2023-03-09T15:01:07;16.67;;;3.22;;
22737;SDS011;11536;50.860;4.286;2023-03-09T15:03:33;21.40;;;3.75;;
22737;SDS011;11536;50.860;4.286;2023-03-09T15:05:59;19.70;;;3.45;;
22737;SDS011;11536;50.860;4.286;2023-03-09T15:08:24;18.25;;;3.13;;
22737;SDS011;11536;50.860;4.286;2023-03-09T15:10:50;18.50;;;3.08;;
22737;SDS011;11536;50.860;4.286;2023-03-09T15:13:16;19.73;;;3.38;;
22737;SDS011;11536;50.860;4.286;2023-03-09T15:15:42;17.92;;;3.58;;
22737;SDS011;11536;50.860;4.286;2023-03-09T15:18:09;20.65;;;2.72;;
22737;SDS011;11536;50.860;4.286;2023-03-09T15:20:36;18.63;;;2.45;;
22737;SDS011;11536;50.860;4.286;2023-03-09T15:23:02;19.05;;;2.72;;
22737;SDS011;11536;50.860;4.286;2023-03-09T15:25:28;20.65;;;3.08;;
22737;SDS011;11536;50.860;4.286;2023-03-09T15:27:54;18.38;;;3.25;;
22737;SDS011;11536;50.860;4.286;2023-03-09T15:30:19;21.35;;;3.42;;
22737;SDS011;11536;50.860;4.286;2023-03-09T15:32:45;20.38;;;3.10;;
22737;SDS011;11536;50.860;4.286;2023-03-09T15:35:13;21.17;;;3.35;;
22737;SDS011;11536;50.860;4.286;2023-03-09T15:37:41;19.95;;;3.08;;
22737;SDS011;11536;50.860;4.286;2023-03-09T15:40:08;16.77;;;3.03;;
22737;SDS011;11536;50.860;4.286;2023-03-09T15:42:38;21.60;;;3.22;;
22737;SDS011;11536;50.860;4.286;2023-03-09T15:45:05;20.70;;;4.18;;
22737;SDS011;11536;50.860;4.286;2023-03-09T15:47:36;16.40;;;2.67;;
22737;SDS011;11536;50.860;4.286;2023-03-09T15:50:03;15.40;;;3.20;;
22737;SDS011;11536;50.860;4.286;2023-03-09T15:52:31;21.77;;;2.92;;
22737;SDS011;11536;50.860;4.286;2023-03-09T15:55:00;18.45;;;3.08;;
22737;SDS011;11536;50.860;4.286;2023-03-09T15:57:27;22.33;;;3.70;;